Terminal Aerodrome Forecast
Issued by NWS

Home | Current Version | Previous Version | Text Only | Print | Product List | Glossary On
Versions: 1 2 3 4 5 6 7 8 9 10 11 12 13 14
000
FTUS42 KMLB 272338
TAFLEE
TAF
KLEE 272338Z 2800/2824 07008KT P6SM FEW050 SCT080
     FM280200 04003KT P6SM FEW035
     FM281500 04006KT P6SM SCT040
     FM282000 05008KT P6SM VCSH SCT035 BKN060=

USA.gov is the U.S. government's official web portal to all federal, state and local government web resources and services.